Time;durP1;ratioP1;P1;durP2;ratioP2;P2;SDS_P1;SDS_P2;PMS_P1;PMS_P2;Temp;Humidity;BMP_temperature;BMP_pressure;BME280_temperature;BME280_humidity;BME280_pressure;Samples;Min_cycle;Max_cycle;Signal;HPM_P1;HPM_P2
2022/10/23 00:01:37;;;;;;;2.70;1.70;;;12.90;99.90;;;;;;5005341;28;20459;-73
2022/10/23 00:04:11;;;;;;;3.00;1.80;;;12.90;99.90;;;;;;5011244;28;20959;-73
2022/10/23 00:06:37;;;;;;;3.33;1.60;;;12.90;99.90;;;;;;5011055;28;20403;-73
2022/10/23 00:09:04;;;;;;;2.33;1.40;;;12.90;99.90;;;;;;5011319;28;20491;-73
2022/10/23 00:11:30;;;;;;;1.80;1.60;;;12.90;99.90;;;;;;5010832;28;20381;-73
2022/10/23 00:14:00;;;;;;;3.10;1.20;;;12.90;99.90;;;;;;5010618;28;20924;-73
2022/10/23 00:16:27;;;;;;;1.33;1.05;;;12.90;99.90;;;;;;5010887;28;20397;-73
2022/10/23 00:18:52;;;;;;;2.28;1.50;;;12.90;99.90;;;;;;5011305;28;20438;-73
2022/10/23 00:21:18;;;;;;;2.70;1.20;;;12.80;99.90;;;;;;5010919;28;20484;-73
2022/10/23 00:23:45;;;;;;;1.60;1.10;;;12.80;99.90;;;;;;5008954;28;20405;-73
2022/10/23 00:26:15;;;;;;;1.40;1.10;;;12.80;99.90;;;;;;5010620;28;20401;-73
2022/10/23 00:28:45;;;;;;;2.03;1.33;;;12.70;99.90;;;;;;5010884;28;20413;-73
2022/10/23 00:31:11;;;;;;;1.80;1.03;;;12.70;99.90;;;;;;5011004;28;20902;-73
2022/10/23 00:33:37;;;;;;;2.20;1.20;;;12.80;99.90;;;;;;5010071;28;20958;-73
2022/10/23 00:36:05;;;;;;;2.40;1.50;;;12.80;99.90;;;;;;5009433;28;20496;-73
2022/10/23 00:38:31;;;;;;;4.35;1.80;;;12.80;99.90;;;;;;5010669;28;20384;-73
2022/10/23 00:40:56;;;;;;;2.27;1.50;;;12.90;99.90;;;;;;5010613;28;20407;-73
2022/10/23 00:43:25;;;;;;;3.90;1.90;;;12.80;99.90;;;;;;5010519;28;20910;-73
2022/10/23 00:45:51;;;;;;;8.05;1.63;;;12.80;99.90;;;;;;5010482;28;20447;-73
2022/10/23 00:48:17;;;;;;;7.40;1.20;;;12.80;99.90;;;;;;5010471;28;20392;-73
2022/10/23 00:50:45;;;;;;;2.30;1.50;;;12.90;99.90;;;;;;5010592;28;20540;-73
2022/10/23 00:53:11;;;;;;;3.40;1.40;;;12.80;99.90;;;;;;5010211;28;20435;-73
2022/10/23 00:55:38;;;;;;;5.90;1.50;;;12.90;99.90;;;;;;5010324;28;20411;-73
2022/10/23 00:58:04;;;;;;;2.35;1.10;;;12.70;99.90;;;;;;5010486;28;20465;-73
2022/10/23 01:00:53;;;;;;;1.73;1.30;;;12.80;99.90;;;;;;5010497;28;20818;-73
2022/10/23 01:03:22;;;;;;;2.65;1.20;;;12.80;99.90;;;;;;5010138;28;20407;-73
2022/10/23 01:06:18;;;;;;;4.18;1.20;;;12.70;99.90;;;;;;5010069;28;20435;-73
2022/10/23 01:08:56;;;;;;;3.22;1.10;;;12.70;99.90;;;;;;5009983;28;20415;-73
2022/10/23 01:11:48;;;;;;;6.53;1.48;;;12.70;99.90;;;;;;5010362;28;20431;-73
2022/10/23 01:14:33;;;;;;;4.80;1.10;;;12.70;99.90;;;;;;5010083;28;20447;-73
2022/10/23 01:17:16;;;;;;;4.20;1.40;;;12.60;99.90;;;;;;5010050;28;20815;-73
2022/10/23 01:19:58;;;;;;;3.90;1.20;;;12.60;99.90;;;;;;5010354;28;20488;-74
2022/10/23 01:22:51;;;;;;;2.10;0.93;;;12.60;99.90;;;;;;5009780;28;20423;-74
2022/10/23 01:25:57;;;;;;;1.60;1.00;;;12.60;99.90;;;;;;5010324;28;20758;-73
2022/10/23 01:28:48;;;;;;;2.63;1.40;;;12.60;99.90;;;;;;4990510;28;20374;-73
2022/10/23 01:31:19;;;;;;;1.23;0.90;;;12.60;99.90;;;;;;4987915;28;20399;-73
2022/10/23 01:33:50;;;;;;;3.10;1.10;;;12.60;99.90;;;;;;5005545;28;20396;-73
2022/10/23 01:36:22;;;;;;;5.00;1.38;;;12.60;99.90;;;;;;5010036;28;20470;-73
2022/10/23 01:39:04;;;;;;;3.38;1.13;;;12.60;99.90;;;;;;5010017;28;20848;-73
2022/10/23 01:41:36;;;;;;;1.90;1.10;;;12.60;99.90;;;;;;5010087;28;20931;-73
2022/10/23 01:44:14;;;;;;;1.65;1.20;;;12.70;99.90;;;;;;5009275;28;20446;-73
2022/10/23 01:46:41;;;;;;;1.80;1.02;;;12.60;99.90;;;;;;5013737;28;20454;-73
2022/10/23 01:49:10;;;;;;;3.50;1.15;;;12.60;99.90;;;;;;5013797;28;20550;-73
2022/10/23 01:51:37;;;;;;;1.60;1.40;;;12.50;99.90;;;;;;5013825;28;20475;-73
2022/10/23 01:54:08;;;;;;;2.87;1.07;;;12.50;99.90;;;;;;5013291;28;20400;-73
2022/10/23 01:56:36;;;;;;;7.13;1.40;;;12.60;99.90;;;;;;5013796;28;20384;-73
2022/10/23 01:59:06;;;;;;;2.13;0.90;;;12.60;99.90;;;;;;5013736;28;20413;-73
2022/10/23 02:01:34;;;;;;;4.00;1.00;;;12.60;99.90;;;;;;5013469;28;20491;-73
2022/10/23 02:04:04;;;;;;;4.60;1.40;;;12.60;99.90;;;;;;5013312;28;20464;-73
2022/10/23 02:06:30;;;;;;;2.70;0.90;;;12.60;99.90;;;;;;5013666;28;20728;-73
2022/10/23 02:08:56;;;;;;;3.00;0.90;;;12.60;99.90;;;;;;5012727;28;20420;-73
2022/10/23 02:11:22;;;;;;;3.30;1.10;;;12.60;99.90;;;;;;5013420;28;20472;-73
2022/10/23 02:14:16;;;;;;;2.57;1.00;;;12.50;99.90;;;;;;5011854;28;20404;-73
2022/10/23 02:16:51;;;;;;;3.60;1.10;;;12.40;99.90;;;;;;5013241;28;20405;-74
2022/10/23 02:19:41;;;;;;;2.50;0.83;;;12.40;99.90;;;;;;5013001;28;20927;-73
2022/10/23 02:22:11;;;;;;;2.10;1.00;;;12.30;99.90;;;;;;5013290;28;20454;-73
2022/10/23 02:24:45;;;;;;;3.00;1.10;;;12.20;99.90;;;;;;5013106;28;20475;-73
2022/10/23 02:27:17;;;;;;;4.97;1.23;;;12.20;99.90;;;;;;5013216;28;20399;-73
2022/10/23 02:29:50;;;;;;;1.67;1.20;;;12.20;99.90;;;;;;5012885;28;20760;-73
2022/10/23 02:32:19;;;;;;;3.43;1.10;;;12.10;99.90;;;;;;5013178;28;20396;-73
2022/10/23 02:34:45;;;;;;;5.70;1.43;;;12.10;99.90;;;;;;5012946;28;20480;-73
2022/10/23 02:37:10;;;;;;;1.63;1.10;;;12.00;99.90;;;;;;5012999;28;20463;-73
2022/10/23 02:39:36;;;;;;;2.30;1.00;;;12.00;99.90;;;;;;5012632;28;20400;-73
2022/10/23 02:42:21;;;;;;;1.85;1.00;;;11.90;99.90;;;;;;5012960;28;20424;-73
2022/10/23 02:44:55;;;;;;;2.60;1.10;;;11.90;99.90;;;;;;5012794;28;20543;-73
2022/10/23 02:47:27;;;;;;;2.50;1.00;;;11.90;99.90;;;;;;5012652;28;20393;-73
2022/10/23 02:50:28;;;;;;;3.50;0.90;;;12.00;99.90;;;;;;4993242;28;20417;-73
2022/10/23 02:52:59;;;;;;;2.07;1.10;;;12.00;99.90;;;;;;4971224;28;20419;-73
2022/10/23 02:55:33;;;;;;;3.47;1.30;;;11.90;99.90;;;;;;5001190;28;20414;-73
2022/10/23 02:58:11;;;;;;;3.58;0.90;;;11.90;99.90;;;;;;4999396;28;20443;-73
2022/10/23 03:00:40;;;;;;;3.13;1.10;;;11.90;99.90;;;;;;5012541;28;20438;-73
2022/10/23 03:03:13;;;;;;;3.25;1.20;;;11.90;99.90;;;;;;5011155;28;20393;-74
2022/10/23 03:05:41;;;;;;;4.95;1.10;;;12.00;99.90;;;;;;5012562;28;20388;-73
2022/10/23 03:08:12;;;;;;;2.20;1.05;;;11.90;99.90;;;;;;5011969;28;20489;-73
2022/10/23 03:10:39;;;;;;;1.42;0.70;;;11.90;99.90;;;;;;5011490;28;20416;-73
2022/10/23 03:13:05;;;;;;;2.78;0.90;;;11.80;99.90;;;;;;5012045;28;20392;-73
2022/10/23 03:15:31;;;;;;;2.15;0.95;;;11.80;99.90;;;;;;5012030;28;20935;-73
2022/10/23 03:17:56;;;;;;;3.53;1.40;;;11.90;99.90;;;;;;5012158;28;20393;-73
2022/10/23 03:20:22;;;;;;;2.80;0.90;;;11.80;99.90;;;;;;5012235;28;20393;-73
2022/10/23 03:22:47;;;;;;;2.07;0.87;;;11.80;99.90;;;;;;5012211;28;20786;-73
2022/10/23 03:25:13;;;;;;;3.78;1.00;;;11.90;99.90;;;;;;5012078;28;20891;-73
2022/10/23 03:27:38;;;;;;;3.80;1.20;;;11.90;99.90;;;;;;5012165;28;20400;-73
2022/10/23 03:30:05;;;;;;;4.32;1.35;;;11.90;99.90;;;;;;5011994;28;20413;-73
2022/10/23 03:32:31;;;;;;;2.00;1.20;;;11.90;99.90;;;;;;5012164;28;20381;-73
2022/10/23 03:34:56;;;;;;;3.43;0.90;;;11.90;99.90;;;;;;5012269;28;20418;-73
2022/10/23 03:37:22;;;;;;;3.80;1.60;;;12.00;99.90;;;;;;5012189;28;20388;-73
2022/10/23 03:39:47;;;;;;;2.77;0.80;;;12.00;99.90;;;;;;5012357;28;20446;-73
2022/10/23 03:42:13;;;;;;;4.33;0.90;;;12.00;99.90;;;;;;5012331;28;20400;-73
2022/10/23 03:44:38;;;;;;;3.60;1.10;;;12.10;99.90;;;;;;5011942;28;20795;-74
2022/10/23 03:47:04;;;;;;;2.47;1.00;;;12.10;99.90;;;;;;5011901;28;20404;-73
2022/10/23 03:49:30;;;;;;;4.10;0.90;;;12.00;99.90;;;;;;5012101;28;20416;-73
2022/10/23 03:51:55;;;;;;;1.20;0.93;;;12.00;99.90;;;;;;5012218;28;20470;-73
2022/10/23 03:54:23;;;;;;;1.77;1.07;;;12.00;99.90;;;;;;5011823;28;20759;-73
2022/10/23 03:56:49;;;;;;;3.40;1.00;;;12.00;99.90;;;;;;5011644;28;20400;-74
2022/10/23 03:59:14;;;;;;;3.00;0.90;;;12.00;99.90;;;;;;5011680;28;20397;-73
2022/10/23 04:01:40;;;;;;;1.85;0.85;;;11.90;99.90;;;;;;5011982;28;20385;-73
2022/10/23 04:04:05;;;;;;;1.70;1.10;;;11.90;99.90;;;;;;5011581;28;20403;-73
2022/10/23 04:06:31;;;;;;;3.90;1.30;;;11.90;99.90;;;;;;5011832;28;20439;-73
2022/10/23 04:08:56;;;;;;;1.20;0.70;;;11.80;99.90;;;;;;5010930;28;20500;-73
2022/10/23 04:11:22;;;;;;;4.40;1.05;;;11.80;99.90;;;;;;5011602;28;20409;-73
2022/10/23 04:13:48;;;;;;;1.35;0.70;;;11.80;99.90;;;;;;5035527;22;20389;-75
2022/10/23 04:16:13;;;;;;;3.70;0.80;;;11.70;99.90;;;;;;5029797;28;21257;-74
2022/10/23 04:18:40;;;;;;;2.83;0.83;;;11.70;99.90;;;;;;5031007;28;20395;-74
2022/10/23 04:21:06;;;;;;;1.08;0.80;;;11.70;99.90;;;;;;5031192;28;20375;-75
2022/10/23 04:23:31;;;;;;;2.27;0.90;;;11.60;99.90;;;;;;5031072;28;20393;-75
2022/10/23 04:25:57;;;;;;;2.15;1.00;;;11.70;99.90;;;;;;5031095;28;20470;-74
2022/10/23 04:28:23;;;;;;;2.30;1.10;;;11.80;99.90;;;;;;5028249;28;20382;-74
2022/10/23 04:30:48;;;;;;;2.15;0.80;;;11.70;99.90;;;;;;5011451;28;20445;-75
2022/10/23 04:33:14;;;;;;;3.60;0.95;;;11.70;99.90;;;;;;5011259;28;20423;-74
2022/10/23 04:35:39;;;;;;;1.30;0.77;;;11.60;99.90;;;;;;5009854;28;20484;-75
2022/10/23 04:38:07;;;;;;;2.83;0.97;;;11.70;99.90;;;;;;5010060;28;20385;-74
2022/10/23 04:40:33;;;;;;;2.60;0.80;;;11.70;99.90;;;;;;5028537;28;20426;-74
2022/10/23 04:42:58;;;;;;;1.10;0.80;;;11.70;99.90;;;;;;5030649;28;20411;-75
2022/10/23 04:45:24;;;;;;;5.10;0.90;;;11.70;99.90;;;;;;5030813;28;20808;-75
2022/10/23 04:47:52;;;;;;;5.20;0.90;;;11.70;99.90;;;;;;5018551;28;20397;-75
2022/10/23 04:50:18;;;;;;;1.17;0.60;;;11.70;99.90;;;;;;5010966;28;20432;-75
2022/10/23 04:52:43;;;;;;;2.40;0.80;;;11.70;99.90;;;;;;5009542;28;20397;-75
2022/10/23 04:55:09;;;;;;;1.70;0.60;;;11.70;99.90;;;;;;5011017;28;20782;-75
2022/10/23 04:57:34;;;;;;;2.87;0.80;;;11.70;99.90;;;;;;5020073;28;20457;-74
2022/10/23 05:00:00;;;;;;;1.70;0.70;;;11.70;99.90;;;;;;5030562;28;20913;-75
2022/10/23 05:02:26;;;;;;;3.60;0.88;;;11.70;99.90;;;;;;5030472;28;20415;-74
2022/10/23 05:04:52;;;;;;;2.20;0.88;;;11.70;99.90;;;;;;5022129;28;20393;-74
2022/10/23 05:07:17;;;;;;;3.50;1.10;;;11.70;99.90;;;;;;5010947;28;20424;-75
2022/10/23 05:09:43;;;;;;;1.50;0.80;;;11.80;99.90;;;;;;5010853;28;20412;-75
2022/10/23 05:12:08;;;;;;;2.70;1.00;;;11.80;99.90;;;;;;5010596;28;20408;-74
2022/10/23 05:14:34;;;;;;;2.40;0.90;;;11.70;99.90;;;;;;5013460;28;20410;-75
2022/10/23 05:17:03;;;;;;;1.33;0.60;;;11.80;99.90;;;;;;5030421;28;20812;-75
2022/10/23 05:19:40;;;;;;;3.50;0.70;;;11.80;99.90;;;;;;5028254;28;20383;-75
2022/10/23 05:22:06;;;;;;;2.08;1.10;;;11.80;99.90;;;;;;5022596;28;20497;-75
2022/10/23 05:24:31;;;;;;;2.40;0.70;;;11.70;99.90;;;;;;5028784;28;20482;-75
2022/10/23 05:26:57;;;;;;;3.60;0.90;;;11.90;99.90;;;;;;5030165;28;20386;-75
2022/10/23 05:29:22;;;;;;;1.30;1.00;;;12.00;99.90;;;;;;5030104;28;20418;-74
2022/10/23 05:31:51;;;;;;;1.40;0.90;;;11.90;99.90;;;;;;5029506;28;20433;-75
2022/10/23 05:34:21;;;;;;;2.10;0.80;;;11.90;99.90;;;;;;5010227;28;20424;-75
2022/10/23 05:36:47;;;;;;;3.00;1.10;;;11.90;99.90;;;;;;5010539;28;20511;-75
2022/10/23 05:39:13;;;;;;;3.95;0.70;;;11.90;99.90;;;;;;5028335;28;20867;-75
2022/10/23 05:41:38;;;;;;;4.40;1.00;;;11.80;99.90;;;;;;5030120;28;20394;-74
2022/10/23 05:44:04;;;;;;;1.80;0.65;;;11.80;99.90;;;;;;5029697;28;20378;-75
2022/10/23 05:46:29;;;;;;;2.60;1.30;;;11.90;99.90;;;;;;5030089;28;20386;-75
2022/10/23 05:48:55;;;;;;;1.00;0.70;;;12.00;99.90;;;;;;5023650;28;20888;-75
2022/10/23 05:51:22;;;;;;;3.28;0.93;;;11.90;99.90;;;;;;5029858;28;20407;-75
2022/10/23 05:53:48;;;;;;;2.35;0.95;;;11.90;99.90;;;;;;5029709;28;20521;-74
2022/10/23 05:56:14;;;;;;;2.70;0.70;;;12.20;99.90;;;;;;5030053;28;20488;-74
2022/10/23 05:58:39;;;;;;;2.10;0.83;;;12.10;99.90;;;;;;5023471;28;20856;-74
2022/10/23 06:01:09;;;;;;;2.00;0.73;;;12.00;99.90;;;;;;5010763;28;20377;-74
2022/10/23 06:03:36;;;;;;;1.70;0.80;;;11.90;99.90;;;;;;5012472;28;20404;-74
2022/10/23 06:06:02;;;;;;;2.13;0.80;;;12.00;99.90;;;;;;5028854;28;20406;-74
2022/10/23 06:08:29;;;;;;;2.75;0.60;;;12.10;99.90;;;;;;5028530;28;20394;-74
2022/10/23 06:10:55;;;;;;;1.50;0.80;;;12.10;99.90;;;;;;5029925;28;20479;-74
2022/10/23 06:13:20;;;;;;;5.57;1.10;;;11.90;99.90;;;;;;5029286;28;20877;-74
2022/10/23 06:15:46;;;;;;;5.40;0.90;;;11.90;99.90;;;;;;5010184;28;20412;-74
2022/10/23 06:18:11;;;;;;;1.50;0.70;;;11.90;99.90;;;;;;5010297;28;20389;-74
2022/10/23 06:20:38;;;;;;;1.83;1.10;;;12.10;99.90;;;;;;5011000;28;20404;-74
2022/10/23 06:23:05;;;;;;;2.00;1.10;;;12.00;99.90;;;;;;5028838;28;20745;-74
2022/10/23 06:25:31;;;;;;;3.60;0.85;;;11.90;99.90;;;;;;5028424;28;20489;-74
2022/10/23 06:27:56;;;;;;;1.30;1.20;;;12.00;99.90;;;;;;5029658;28;20491;-74
2022/10/23 06:30:22;;;;;;;3.97;1.67;;;12.00;99.90;;;;;;5029680;28;20413;-74
2022/10/23 06:32:48;;;;;;;1.50;0.80;;;12.10;99.90;;;;;;5033043;28;20406;-74
2022/10/23 06:35:13;;;;;;;2.37;0.80;;;11.80;99.90;;;;;;5018898;28;20483;-74
2022/10/23 06:37:39;;;;;;;2.10;1.30;;;11.80;99.90;;;;;;5013395;28;20826;-74
2022/10/23 06:40:06;;;;;;;2.80;0.80;;;11.90;99.90;;;;;;5013625;28;20470;-74
2022/10/23 06:42:32;;;;;;;4.32;1.40;;;12.00;99.90;;;;;;5013236;28;20421;-74
2022/10/23 06:44:57;;;;;;;1.90;1.20;;;12.00;99.90;;;;;;5024491;28;20828;-74
2022/10/23 06:47:23;;;;;;;2.10;0.90;;;12.00;99.90;;;;;;5033344;28;20915;-74
2022/10/23 06:49:48;;;;;;;1.50;0.80;;;12.00;99.90;;;;;;5020316;28;20891;-74
2022/10/23 06:52:14;;;;;;;2.63;0.80;;;11.90;99.90;;;;;;5013227;28;20396;-74
2022/10/23 06:54:39;;;;;;;1.00;0.90;;;11.90;99.90;;;;;;5012952;28;20412;-74
2022/10/23 06:57:05;;;;;;;3.10;1.43;;;12.00;99.90;;;;;;5013158;28;20402;-74
2022/10/23 06:59:30;;;;;;;4.80;1.00;;;12.00;99.90;;;;;;5022141;28;20407;-74
2022/10/23 07:01:56;;;;;;;1.73;1.03;;;12.00;99.90;;;;;;5032809;28;20906;-74
2022/10/23 07:04:21;;;;;;;1.95;1.30;;;12.30;99.90;;;;;;5032521;28;20433;-74
2022/10/23 07:06:47;;;;;;;2.13;0.97;;;12.50;99.90;;;;;;5026460;28;20432;-74
2022/10/23 07:09:12;;;;;;;3.40;0.90;;;12.40;99.90;;;;;;5012958;28;20400;-74
2022/10/23 07:11:38;;;;;;;2.35;0.98;;;12.60;99.90;;;;;;5012767;28;20389;-74
2022/10/23 07:14:04;;;;;;;3.08;1.00;;;12.70;99.90;;;;;;5012342;28;20497;-74
2022/10/23 07:16:30;;;;;;;6.07;1.30;;;12.50;99.90;;;;;;5014854;28;20493;-74
2022/10/23 07:18:59;;;;;;;5.43;1.13;;;12.60;99.90;;;;;;5031268;28;20387;-75
2022/10/23 07:21:29;;;;;;;2.30;1.30;;;12.90;99.90;;;;;;5026574;28;20400;-74
2022/10/23 07:23:55;;;;;;;1.17;0.95;;;12.80;99.90;;;;;;5012333;28;20404;-74
2022/10/23 07:26:21;;;;;;;3.10;1.30;;;12.80;99.90;;;;;;5014858;28;20428;-74
2022/10/23 07:28:49;;;;;;;1.10;1.00;;;12.70;99.90;;;;;;5031999;28;20790;-74
2022/10/23 07:31:15;;;;;;;1.80;1.40;;;12.90;99.90;;;;;;5032404;28;20412;-74
2022/10/23 07:33:40;;;;;;;3.40;1.73;;;12.80;99.90;;;;;;5031097;28;20391;-75
2022/10/23 07:36:07;;;;;;;2.87;1.20;;;12.80;99.90;;;;;;5027640;28;20789;-74
2022/10/23 07:38:34;;;;;;;1.65;1.30;;;12.80;99.90;;;;;;5037019;28;20443;-74
2022/10/23 07:40:59;;;;;;;1.90;1.70;;;12.80;99.90;;;;;;5014491;28;20409;-74
2022/10/23 07:43:26;;;;;;;3.60;1.95;;;12.90;99.90;;;;;;5011461;28;20802;-74
2022/10/23 07:45:52;;;;;;;1.67;1.50;;;13.00;99.90;;;;;;5019626;28;20405;-74
2022/10/23 07:48:19;;;;;;;1.73;1.38;;;13.00;99.90;;;;;;5027577;28;20429;-74
2022/10/23 07:50:45;;;;;;;1.67;1.20;;;13.10;99.90;;;;;;5017740;28;20444;-74
2022/10/23 07:53:18;;;;;;;3.90;1.80;;;13.20;99.90;;;;;;5024526;28;20849;-73
2022/10/23 07:55:52;;;;;;;3.90;1.40;;;13.30;99.90;;;;;;5021746;28;20773;-74
2022/10/23 07:58:17;;;;;;;3.90;1.40;;;13.30;99.90;;;;;;5026930;28;20885;-74
2022/10/23 08:00:44;;;;;;;5.50;1.60;;;13.50;99.90;;;;;;5029458;28;20411;-74
2022/10/23 08:03:11;;;;;;;2.40;1.30;;;13.50;99.90;;;;;;5028803;28;21124;-74
2022/10/23 08:05:37;;;;;;;2.28;1.60;;;13.60;99.90;;;;;;5036568;28;20449;-74
2022/10/23 08:08:03;;;;;;;3.40;1.30;;;13.70;99.90;;;;;;5023559;28;20491;-74
2022/10/23 08:10:28;;;;;;;2.08;1.23;;;13.80;99.90;;;;;;5026710;28;20412;-73
2022/10/23 08:12:54;;;;;;;2.58;1.48;;;13.80;99.90;;;;;;5028833;28;20399;-74
2022/10/23 08:15:19;;;;;;;2.20;1.30;;;13.90;99.90;;;;;;5024025;28;20423;-73
2022/10/23 08:17:45;;;;;;;3.57;1.50;;;13.90;99.90;;;;;;5028789;28;20461;-73
2022/10/23 08:20:12;;;;;;;1.35;1.13;;;14.00;99.90;;;;;;5031356;28;20434;-74
2022/10/23 08:22:38;;;;;;;1.23;1.10;;;14.20;99.90;;;;;;5019197;28;20413;-73
2022/10/23 08:25:04;;;;;;;2.60;1.30;;;14.30;99.90;;;;;;5030228;28;20456;-73
2022/10/23 08:27:30;;;;;;;2.83;1.23;;;14.50;99.90;;;;;;5027993;28;20755;-73
2022/10/23 08:29:56;;;;;;;2.33;1.10;;;14.70;99.90;;;;;;5029168;28;20411;-73
2022/10/23 08:32:21;;;;;;;1.20;1.07;;;14.80;99.90;;;;;;5027937;28;20494;-73
2022/10/23 08:34:47;;;;;;;2.30;1.10;;;14.80;99.90;;;;;;5030757;28;20383;-74
2022/10/23 08:37:12;;;;;;;3.25;1.30;;;14.90;99.90;;;;;;5025292;28;20407;-73
2022/10/23 08:39:38;;;;;;;1.73;0.90;;;15.10;99.90;;;;;;5027884;28;20410;-73
2022/10/23 08:42:04;;;;;;;3.20;1.03;;;15.20;99.90;;;;;;5021792;28;20416;-74
2022/10/23 08:44:29;;;;;;;2.90;1.08;;;15.30;99.90;;;;;;5022171;28;20970;-74
2022/10/23 08:47:10;;;;;;;2.03;0.98;;;15.40;99.90;;;;;;5027390;28;20472;-74
2022/10/23 08:49:56;;;;;;;11.35;1.52;;;15.40;99.90;;;;;;5025870;28;20422;-75
2022/10/23 08:52:43;;;;;;;2.83;0.98;;;15.50;99.90;;;;;;5025283;28;20406;-75
2022/10/23 08:55:22;;;;;;;1.30;0.93;;;15.60;99.90;;;;;;5026814;28;20789;-75
2022/10/23 08:57:52;;;;;;;2.28;1.48;;;15.60;99.90;;;;;;5030395;28;20403;-74
2022/10/23 09:00:18;;;;;;;1.48;0.88;;;15.60;99.90;;;;;;5027984;28;20901;-75
2022/10/23 09:02:48;;;;;;;5.95;2.40;;;15.80;99.90;;;;;;5019268;28;20446;-75
2022/10/23 09:05:25;;;;;;;1.40;1.13;;;15.80;99.90;;;;;;5027188;28;20405;-75
2022/10/23 09:08:25;;;;;;;2.72;1.13;;;15.90;99.90;;;;;;5033150;28;20485;-74
2022/10/23 09:10:58;;;;;;;3.50;1.00;;;16.10;99.90;;;;;;5024823;28;20502;-75
2022/10/23 09:13:38;;;;;;;2.20;1.70;;;16.20;99.90;;;;;;5028634;28;20423;-74
2022/10/23 09:16:48;;;;;;;2.97;1.60;;;16.30;99.90;;;;;;5028272;28;20415;-74
2022/10/23 09:19:19;;;;;;;5.63;2.55;;;16.40;99.90;;;;;;5021516;28;20760;-74
2022/10/23 09:21:48;;;;;;;2.35;1.73;;;16.50;99.90;;;;;;5029523;28;20964;-73
2022/10/23 09:24:19;;;;;;;2.42;1.00;;;16.60;99.90;;;;;;5028389;28;20421;-69
2022/10/23 09:26:48;;;;;;;4.18;1.33;;;16.70;99.90;;;;;;5025892;28;20910;-69
2022/10/23 09:29:25;;;;;;;4.20;2.00;;;16.80;99.90;;;;;;5025696;28;20407;-70
2022/10/23 09:31:59;;;;;;;2.35;1.30;;;16.90;99.90;;;;;;5022293;28;20437;-70
2022/10/23 09:34:28;;;;;;;5.18;1.40;;;16.80;99.90;;;;;;5025421;28;20935;-71
2022/10/23 09:37:17;;;;;;;2.40;1.70;;;16.90;99.90;;;;;;5028353;28;20403;-70
2022/10/23 09:39:42;;;;;;;4.00;2.38;;;17.10;99.90;;;;;;5023399;28;20413;-70
2022/10/23 09:42:24;;;;;;;2.90;1.13;;;17.20;99.90;;;;;;5018091;28;20408;-70
2022/10/23 09:44:52;;;;;;;5.10;1.80;;;17.10;99.90;;;;;;5020289;28;20509;-71
2022/10/23 09:47:21;;;;;;;2.10;1.30;;;17.30;99.90;;;;;;5019337;28;20873;-70
2022/10/23 09:49:49;;;;;;;2.13;1.10;;;17.30;99.90;;;;;;5029531;28;20457;-70
2022/10/23 09:52:16;;;;;;;2.40;1.20;;;17.40;99.90;;;;;;5025505;28;21137;-70
2022/10/23 09:54:53;;;;;;;3.10;1.15;;;17.40;99.90;;;;;;5022030;28;20427;-71
2022/10/23 09:57:26;;;;;;;1.38;1.10;;;17.60;99.90;;;;;;5023555;28;20399;-70
2022/10/23 09:59:54;;;;;;;2.35;1.30;;;17.60;99.90;;;;;;5029900;28;20387;-70
2022/10/23 10:02:31;;;;;;;1.60;1.23;;;17.60;99.90;;;;;;5027942;28;20399;-75
2022/10/23 10:04:57;;;;;;;1.40;1.10;;;17.50;99.90;;;;;;5025944;28;20407;-76
2022/10/23 10:07:26;;;;;;;4.28;1.40;;;17.70;99.90;;;;;;5026805;28;20929;-75
2022/10/23 10:09:53;;;;;;;1.98;1.20;;;17.60;99.90;;;;;;5024063;28;20450;-75
2022/10/23 10:12:34;;;;;;;1.10;0.90;;;17.70;99.90;;;;;;5025368;28;20432;-75
2022/10/23 10:15:16;;;;;;;5.30;1.60;;;17.90;99.90;;;;;;5029110;28;20411;-75
2022/10/23 10:18:11;;;;;;;3.78;1.60;;;18.00;99.90;;;;;;5030271;28;20399;-75
2022/10/23 10:20:54;;;;;;;2.80;1.30;;;18.20;99.90;;;;;;5030019;28;20404;-75
2022/10/23 10:23:33;;;;;;;1.60;1.50;;;18.40;99.90;;;;;;5032941;28;20448;-75
2022/10/23 10:26:23;;;;;;;1.55;1.38;;;18.40;99.90;;;;;;5032747;28;20398;-75
2022/10/23 10:28:57;;;;;;;4.88;2.20;;;18.60;99.90;;;;;;5033315;28;20387;-75
2022/10/23 10:31:40;;;;;;;3.57;2.10;;;18.80;99.90;;;;;;5033007;28;20399;-75
2022/10/23 10:34:30;;;;;;;2.97;1.80;;;18.80;99.90;;;;;;5016566;28;20451;-75
2022/10/23 10:37:19;;;;;;;3.30;1.48;;;18.90;99.90;;;;;;5013465;28;20423;-75
2022/10/23 10:40:06;;;;;;;4.80;1.90;;;18.80;99.90;;;;;;5013665;28;20393;-75
2022/10/23 10:42:41;;;;;;;2.05;1.63;;;18.90;99.90;;;;;;5015580;28;20421;-75
2022/10/23 10:45:24;;;;;;;3.88;2.00;;;19.00;99.90;;;;;;5032654;28;20415;-74
2022/10/23 10:48:08;;;;;;;3.15;2.10;;;19.30;99.90;;;;;;5022500;28;20404;-75
2022/10/23 10:51:16;;;;;;;2.73;1.80;;;19.40;99.90;;;;;;5013103;28;20452;-72
2022/10/23 10:54:19;;;;;;;4.03;2.10;;;19.50;99.90;;;;;;5011787;28;20393;-74
2022/10/23 10:56:46;;;;;;;2.70;1.80;;;19.50;99.90;;;;;;5013360;28;20387;-75
2022/10/23 10:59:22;;;;;;;2.80;2.38;;;19.60;99.90;;;;;;5031512;28;20422;-75
2022/10/23 11:02:18;;;;;;;3.92;2.30;;;19.80;99.90;;;;;;5031357;28;20414;-74
2022/10/23 11:04:49;;;;;;;3.30;2.23;;;20.10;99.90;;;;;;5026131;28;20925;-75
2022/10/23 11:07:20;;;;;;;4.20;2.40;;;20.50;99.90;;;;;;5013129;28;20405;-75
2022/10/23 11:09:46;;;;;;;2.83;2.20;;;20.50;99.90;;;;;;5012844;28;20400;-75
2022/10/23 11:12:21;;;;;;;4.10;2.20;;;20.50;99.90;;;;;;5013046;28;20396;-75
2022/10/23 11:14:48;;;;;;;4.63;2.30;;;20.90;99.90;;;;;;5017788;28;20403;-75
2022/10/23 11:17:36;;;;;;;4.03;2.25;;;21.30;99.90;;;;;;5032646;28;20451;-75
2022/10/23 11:20:20;;;;;;;2.58;2.30;;;21.50;99.90;;;;;;5032476;28;20395;-75
2022/10/23 11:23:16;;;;;;;3.95;2.60;;;21.60;99.90;;;;;;5015272;28;20389;-75
2022/10/23 11:26:03;;;;;;;3.40;2.10;;;21.50;99.90;;;;;;5027477;28;20395;-75
2022/10/23 11:28:46;;;;;;;3.60;2.67;;;21.00;99.90;;;;;;5032609;28;20481;-75
2022/10/23 11:31:27;;;;;;;5.43;2.75;;;20.90;99.90;;;;;;5032227;28;20453;-76
2022/10/23 11:34:31;;;;;;;3.80;2.70;;;21.00;99.90;;;;;;5031144;28;20892;-75
2022/10/23 11:37:00;;;;;;;3.10;2.80;;;21.00;99.90;;;;;;5011170;28;20855;-75
2022/10/23 11:39:31;;;;;;;6.63;3.42;;;20.90;99.90;;;;;;5012288;28;20412;-75
2022/10/23 11:41:58;;;;;;;4.20;2.67;;;21.10;99.90;;;;;;5012286;28;20416;-75
2022/10/23 11:44:44;;;;;;;3.57;2.80;;;21.00;99.90;;;;;;5019347;28;20742;-75
2022/10/23 11:47:31;;;;;;;3.78;2.60;;;21.30;99.90;;;;;;5032408;28;20444;-75
2022/10/23 11:50:06;;;;;;;3.22;2.40;;;21.40;99.90;;;;;;5031625;28;20909;-75
2022/10/23 11:52:36;;;;;;;3.30;2.50;;;21.70;99.90;;;;;;5031765;28;20387;-75
2022/10/23 11:55:16;;;;;;;7.30;2.50;;;22.00;99.90;;;;;;5026590;28;20407;-75
2022/10/23 11:58:03;;;;;;;3.17;2.08;;;22.20;99.90;;;;;;5020959;28;20459;-75
2022/10/23 12:00:30;;;;;;;4.30;2.08;;;22.80;99.90;;;;;;5019576;28;20799;-75
2022/10/23 12:02:56;;;;;;;2.65;2.20;;;23.40;99.90;;;;;;5020522;28;20402;-75
2022/10/23 12:05:36;;;;;;;2.63;2.25;;;23.50;99.90;;;;;;5011690;28;20389;-76
2022/10/23 12:08:06;;;;;;;2.65;2.10;;;24.40;99.90;;;;;;5017030;28;20399;-75
2022/10/23 12:10:34;;;;;;;4.10;2.30;;;23.90;99.90;;;;;;5031205;28;20965;-75
2022/10/23 12:13:03;;;;;;;5.40;2.13;;;24.40;99.90;;;;;;5030435;28;20399;-75
2022/10/23 12:15:30;;;;;;;1.90;1.70;;;25.00;98.00;;;;;;5031487;28;20777;-75
2022/10/23 12:18:28;;;;;;;2.30;2.10;;;24.30;98.50;;;;;;5027343;28;20400;-75
2022/10/23 12:21:02;;;;;;;5.67;2.13;;;24.70;98.20;;;;;;5000954;28;20755;-75
2022/10/23 12:23:52;;;;;;;4.80;2.20;;;24.00;99.80;;;;;;5031313;28;20402;-75
2022/10/23 12:26:47;;;;;;;4.00;2.60;;;23.70;99.90;;;;;;5032497;28;20900;-74
2022/10/23 12:29:22;;;;;;;3.30;2.50;;;23.40;99.90;;;;;;5030175;28;20415;-73
2022/10/23 12:32:17;;;;;;;4.00;2.30;;;22.80;99.90;;;;;;5025299;28;20399;-73
2022/10/23 12:35:20;;;;;;;4.63;2.22;;;22.20;99.90;;;;;;5010680;28;20389;-74
2022/10/23 12:37:58;;;;;;;2.70;2.00;;;22.10;99.90;;;;;;5011181;28;20439;-73
2022/10/23 12:40:28;;;;;;;2.72;2.10;;;22.10;99.90;;;;;;5009899;28;20827;-73
2022/10/23 12:42:56;;;;;;;2.60;2.00;;;22.20;99.90;;;;;;5024013;28;20406;-73
2022/10/23 12:45:27;;;;;;;4.20;1.90;;;22.30;99.90;;;;;;5030626;28;20387;-74
2022/10/23 12:47:53;;;;;;;4.15;2.30;;;21.90;99.90;;;;;;5020872;28;20404;-74
2022/10/23 12:50:20;;;;;;;4.20;1.90;;;21.50;99.90;;;;;;5010707;28;20408;-74
2022/10/23 12:52:55;;;;;;;3.13;1.80;;;21.50;99.90;;;;;;5010891;28;20397;-74
2022/10/23 12:55:22;;;;;;;4.38;2.00;;;21.50;99.90;;;;;;5009775;28;20389;-74
2022/10/23 12:57:48;;;;;;;3.30;1.80;;;21.50;99.90;;;;;;5017053;28;20401;-74
2022/10/23 13:00:17;;;;;;;2.97;1.57;;;21.40;99.90;;;;;;5028657;28;20914;-75
2022/10/23 13:02:42;;;;;;;2.70;1.80;;;21.50;99.90;;;;;;5030229;28;20383;-75
2022/10/23 13:05:13;;;;;;;3.35;2.20;;;21.80;99.90;;;;;;5031085;28;20383;-75
2022/10/23 13:07:44;;;;;;;3.70;2.05;;;21.60;99.90;;;;;;5029506;28;20873;-75
2022/10/23 13:10:15;;;;;;;3.20;2.10;;;21.50;99.90;;;;;;5020721;28;20410;-75